Terminal Aerodrome Forecast
Issued by NWS

Home | Current Version | Previous Version | Graphics & Text | Print | Product List | Glossary Off
Versions: 1 2 3 4 5 6 7 8 9 10 11 12 13 14 15 16 17 18

000
FTUS43 KGRB 191100
TAFATW
TAF
KATW 191138Z 1912/2012 10008KT P6SM BKN150
     FM191500 15015G23KT P6SM BKN150
     FM200100 16011KT P6SM SCT050 SCT120 WS010/18040KT
     FM200600 19011KT P6SM BKN040 OVC100 WS010/21040KT
      TEMPO 2009/2012 -RA=

USA.gov is the U.S. government's official web portal to all federal, state and local government web resources and services.